KDAB/DAB METAR and TAF weather

Enter ICAO airport designator
Station Type Date Time Source
KDAB METAR 2019/06/26 18:53 UTC NOAA

KDAB 261853Z 03013KT 10SM FEW040 FEW250 32/23 A3011 RMK AO2 SLP194 T03220233


Station Type Date Time Source
KDAB Decoded METAR 2019/06/26 18:53 UTC NOAA

DAYTONA BEACH INTERNATIONAL, FL, United States (KDAB) 29-10N 81-04W 9M
Jun 26, 2019 - 02:53 PM EDT / 2019.06.26 1853 UTC
Wind: from the NNE (030 degrees) at 15 MPH (13 KT):0
Visibility: 10 mile(s):0
Sky conditions: mostly clear
Temperature: 90.0 F (32.2 C)
Heat index: 99.1 F (37.3 C):1
Dew Point: 73.9 F (23.3 C)
Relative Humidity: 59%
Pressure (altimeter): 30.11 in. Hg (1019 hPa)
ob: KDAB 261853Z 03013KT 10SM FEW040 FEW250 32/23 A3011 RMK AO2 SLP194 T03220233
cycle: 19

Station Type Date Time Source
KDAB TAF 2019/06/26 18:45 UTC NOAA

TAF KDAB 261742Z 2618/2718 03012KT P6SM FEW040 SCT250
FM261900 07010KT P6SM SCT040
FM270200 VRB03KT P6SM SCT250
FM271500 03006KT P6SM FEW030

Example: see airport list